This is the latest recevied weather packets stored in our database for station/object WZ9ZZZ-1. If no packets are shown the sender has not sent any weather packets the latest 10 day(s).
| Time | Temp. | Humidity | Pressure | Rain* | Wind** | Luminosity | Snow |
|---|---|---|---|---|---|---|---|
| 1777589660 | 24.44° C | 85% | 1011.9 hPa | 0 mm | - | 37 W/m² | - |
| 1777589357 | 24.44° C | 84% | 1011.9 hPa | 0 mm | - | 51 W/m² | - |
| 1777589054 | 24.44° C | 85% | 1012 hPa | 0 mm | - | 83 W/m² | - |
| 1777588750 | 24.44° C | 85% | 1011.9 hPa | 0 mm | - | 145 W/m² | - |
| 1777588446 | 24.44° C | 87% | 1011.9 hPa | 0 mm | - | 143 W/m² | - |
| 1777588141 | 24.44° C | 87% | 1012.1 hPa | 0 mm | - | 161 W/m² | - |
| 1777587838 | 24.44° C | 87% | 1012 hPa | 0 mm | - | 126 W/m² | - |
| 1777587537 | 24.44° C | 88% | 1011.7 hPa | 0 mm | - | 265 W/m² | - |
| 1777587233 | 23.89° C | 90% | 1011.8 hPa | 0 mm | - | 408 W/m² | - |
| 1777586929 | 23.89° C | 91% | 1011.8 hPa | 0 mm | - | 325 W/m² | - |
| 1777586625 | 23.33° C | 90% | 1012.2 hPa | 1.27 mm | - | 110 W/m² | - |
| 1777586321 | 23.89° C | 90% | 1012.1 hPa | 8.89 mm | - | 91 W/m² | - |
| 1777586019 | 25° C | 88% | 1012.1 hPa | 7.87 mm | - | 143 W/m² | - |
| 1777585719 | 25° C | 85% | 1012.2 hPa | 0 mm | - | 89 W/m² | - |
| 1777585419 | 25.56° C | 84% | 1012.1 hPa | 0 mm | - | 86 W/m² | - |
| 1777585114 | 25.56° C | 83% | 1012.5 hPa | 0 mm | - | 58 W/m² | - |
| 1777584811 | 25.56° C | 83% | 1012.4 hPa | 0 mm | - | 59 W/m² | - |
| 1777584509 | 25.56° C | 83% | 1012.8 hPa | 0 mm | - | 27 W/m² | - |
| 1777584205 | 26.67° C | 82% | 1012.7 hPa | 0 mm | - | 5 W/m² | - |
| 1777583904 | 28.33° C | 79% | 1012.8 hPa | 0 mm | - | 19 W/m² | - |
| 1777583600 | 28.33° C | 80% | 1012.4 hPa | 0 mm | - | 58 W/m² | - |
| 1777583299 | 28.89° C | 79% | 1012.4 hPa | 0 mm | - | 98 W/m² | - |
| 1777582994 | 28.89° C | 79% | 1012.7 hPa | 0 mm | - | 179 W/m² | - |
| 1777582692 | 28.89° C | 80% | 1012.5 hPa | 0 mm | - | 104 W/m² | - |
| 1777582392 | 28.89° C | 79% | 1012.6 hPa | 0 mm | - | 100 W/m² | - |
* Rain latest hour (hover to see other rain measurements)
** Current wind speed in m/s (hover to see current wind gust speed)